Time;durP1;ratioP1;P1;durP2;ratioP2;P2;SDS_P1;SDS_P2;PMS_P1;PMS_P2;Temp;Humidity;BMP_temperature;BMP_pressure;BME280_temperature;BME280_humidity;BME280_pressure;Samples;Min_cycle;Max_cycle;Signal;HPM_P1;HPM_P2
2022/06/06 00:02:18;;;;;;;4.40;2.58;;;;;;;22.26;39.47;99717.81;4363085;32;33798;-93
2022/06/06 00:04:46;;;;;;;4.87;2.50;;;;;;;22.52;38.67;99718.53;4362646;32;33705;-92
2022/06/06 00:07:16;;;;;;;4.15;2.35;;;;;;;22.57;39.21;99727.75;4350695;32;33862;-92
2022/06/06 00:09:44;;;;;;;4.97;2.25;;;;;;;22.63;38.67;99735.00;4350611;32;32484;-93
2022/06/06 00:12:15;;;;;;;4.55;2.55;;;;;;;22.63;38.72;99732.19;4361956;32;33246;-91
2022/06/06 00:14:43;;;;;;;10.52;2.53;;;;;;;22.60;38.30;99735.56;4362648;32;32962;-92
2022/06/06 00:17:13;;;;;;;4.60;2.60;;;;;;;22.59;38.59;99731.09;4363152;32;35048;-90
2022/06/06 00:19:41;;;;;;;4.25;2.42;;;;;;;22.58;38.87;99725.78;4362887;32;33881;-93
2022/06/06 00:22:09;;;;;;;3.83;2.30;;;;;;;22.50;38.93;99724.41;4362889;32;31958;-92
2022/06/06 00:24:37;;;;;;;8.25;2.60;;;;;;;22.75;38.28;99723.44;4350504;32;33149;-93
2022/06/06 00:27:05;;;;;;;6.15;2.47;;;;;;;22.68;38.17;99723.78;4362782;32;32928;-92
2022/06/06 00:29:35;;;;;;;6.03;2.45;;;;;;;22.70;37.93;99731.03;4350616;32;34388;-92
2022/06/06 00:34:54;;;;;;;4.55;2.40;;;;;;;22.60;38.53;99738.38;4352213;32;32119;-92
2022/06/06 00:37:27;;;;;;;5.43;2.35;;;;;;;22.53;38.61;99743.44;4362513;32;33643;-93
2022/06/06 00:39:55;;;;;;;4.20;2.62;;;;;;;22.37;39.16;99747.41;4362087;32;32588;-93
2022/06/06 00:42:36;;;;;;;4.47;2.30;;;;;;;22.43;39.02;99751.03;4350462;32;32677;-93
2022/06/06 00:45:22;;;;;;;3.80;2.20;;;;;;;22.42;39.40;99755.78;4363998;32;33707;-92
2022/06/06 00:48:33;;;;;;;3.90;2.37;;;;;;;22.49;39.23;99767.50;4362187;32;33909;-91
2022/06/06 00:51:09;;;;;;;4.97;2.60;;;;;;;22.53;38.93;99762.16;4344990;32;32742;-92
2022/06/06 00:53:53;;;;;;;4.20;2.28;;;;;;;22.60;39.09;99773.91;4350363;32;31648;-92
2022/06/06 00:56:26;;;;;;;3.87;2.20;;;;;;;22.51;39.28;99776.44;4362477;32;34007;-92
2022/06/06 00:58:58;;;;;;;4.75;2.47;;;;;;;22.52;39.00;99785.66;4362663;32;35158;-92
2022/06/06 01:01:27;;;;;;;4.82;2.45;;;;;;;22.58;39.25;99796.56;4362551;32;33937;-92
2022/06/06 01:04:00;;;;;;;4.22;2.33;;;;;;;22.49;39.60;99803.84;4350397;32;32434;-92
2022/06/06 01:06:30;;;;;;;5.60;2.30;;;;;;;22.42;39.99;99805.28;4350425;32;34679;-92
2022/06/06 01:09:00;;;;;;;4.50;2.50;;;;;;;22.50;39.53;99813.94;4362392;32;34513;-92
2022/06/06 01:11:28;;;;;;;4.45;2.70;;;;;;;22.53;39.73;99806.94;4362234;32;33364;-92
2022/06/06 01:13:56;;;;;;;4.25;2.53;;;;;;;22.39;39.76;99795.50;4362429;32;34151;-92
2022/06/06 01:16:39;;;;;;;4.25;2.70;;;;;;;22.43;39.87;99793.81;4362306;32;34523;-92
2022/06/06 01:19:36;;;;;;;4.68;2.80;;;;;;;22.44;39.98;99806.66;4350325;32;32711;-92
2022/06/06 01:22:36;;;;;;;5.85;2.75;;;;;;;22.27;40.48;99808.94;4343217;32;32559;-93
2022/06/06 01:25:14;;;;;;;4.93;3.10;;;;;;;22.09;41.08;99813.19;4362519;32;34275;-92
2022/06/06 01:28:01;;;;;;;4.62;3.08;;;;;;;21.92;41.52;99812.63;4350076;32;33827;-91
2022/06/06 01:30:36;;;;;;;4.62;2.80;;;;;;;21.95;41.70;99803.69;4362383;32;34303;-92
2022/06/06 01:33:05;;;;;;;5.20;3.00;;;;;;;21.79;42.03;99813.19;4362343;32;34013;-91
2022/06/06 01:35:36;;;;;;;5.68;3.08;;;;;;;21.89;41.81;99811.22;4362373;32;33191;-92
2022/06/06 01:38:04;;;;;;;5.43;3.03;;;;;;;21.82;42.11;99819.06;4337988;32;31631;-92
2022/06/06 01:40:51;;;;;;;5.47;2.83;;;;;;;21.92;41.69;99824.63;4362222;32;33943;-91
2022/06/06 01:43:23;;;;;;;4.30;2.80;;;;;;;21.98;41.85;99834.69;4362267;32;32502;-91
2022/06/06 01:46:00;;;;;;;5.93;3.12;;;;;;;22.06;41.78;99849.25;4362263;32;33211;-92
2022/06/06 01:48:36;;;;;;;5.18;3.00;;;;;;;22.23;41.41;99853.41;4349918;32;33708;-92
2022/06/06 01:51:18;;;;;;;5.18;3.00;;;;;;;22.45;40.98;99869.88;4362343;32;34504;-90
2022/06/06 01:53:47;;;;;;;5.78;3.28;;;;;;;22.39;40.96;99887.78;4349911;32;32467;-92
2022/06/06 01:56:25;;;;;;;6.05;3.33;;;;;;;22.61;40.60;99910.69;4362074;32;33077;-92
2022/06/06 01:58:54;;;;;;;4.35;2.78;;;;;;;22.74;40.41;99926.06;4362224;32;33695;-92
2022/06/06 02:01:22;;;;;;;4.70;2.90;;;;;;;22.72;40.31;99949.84;4361912;32;34235;-91
2022/06/06 02:03:53;;;;;;;6.87;3.22;;;;;;;22.61;40.62;99971.41;4362133;32;34702;-91
2022/06/06 02:06:21;;;;;;;4.95;3.30;;;;;;;22.46;40.72;99968.59;4362163;32;34026;-91
2022/06/06 02:08:50;;;;;;;5.70;2.87;;;;;;;22.42;40.79;99968.31;4361940;32;33565;-91
2022/06/06 02:11:19;;;;;;;4.95;3.30;;;;;;;22.37;41.60;99950.72;4350039;32;33899;-91
2022/06/06 02:13:46;;;;;;;7.07;2.92;;;;;;;22.34;42.00;99938.13;4361928;32;34088;-91
2022/06/06 02:16:15;;;;;;;5.37;3.28;;;;;;;22.36;42.93;99941.47;4361985;32;31845;-91
2022/06/06 02:18:43;;;;;;;4.75;3.12;;;;;;;22.45;42.96;99928.62;4362047;32;32335;-90
2022/06/06 02:21:10;;;;;;;5.12;2.78;;;;;;;22.47;43.07;99920.78;4362002;32;35155;-91
2022/06/06 02:23:42;;;;;;;7.55;2.75;;;;;;;22.47;43.16;99904.00;4349688;32;32524;-92
2022/06/06 02:26:11;;;;;;;5.20;3.05;;;;;;;22.52;43.08;99906.78;4361911;32;33133;-91
2022/06/06 02:28:41;;;;;;;6.62;3.50;;;;;;;22.41;43.45;99905.12;4361773;32;34549;-92
2022/06/06 02:31:09;;;;;;;5.32;3.00;;;;;;;22.27;43.72;99906.81;4361827;32;34272;-91
2022/06/06 02:33:37;;;;;;;5.43;3.20;;;;;;;22.44;43.31;99915.75;4347934;32;34074;-91
2022/06/06 02:36:06;;;;;;;5.80;2.80;;;;;;;22.63;42.42;99916.84;4349541;32;31942;-92
2022/06/06 02:38:34;;;;;;;4.30;2.80;;;;;;;22.67;42.19;99922.72;4361754;32;34126;-92
2022/06/06 02:41:09;;;;;;;5.37;3.22;;;;;;;22.61;42.19;99924.69;4361330;32;32890;-92
2022/06/06 02:43:39;;;;;;;5.22;3.37;;;;;;;22.55;42.31;99917.41;4361640;32;33915;-92
2022/06/06 02:46:09;;;;;;;5.32;3.28;;;;;;;22.48;42.47;99914.06;4349572;32;31914;-92
2022/06/06 02:48:37;;;;;;;4.78;2.95;;;;;;;22.35;42.76;99914.63;4349304;32;32419;-91
2022/06/06 02:51:07;;;;;;;5.95;2.92;;;;;;;22.06;44.37;99907.97;4361611;32;33145;-91
2022/06/06 02:53:37;;;;;;;4.70;3.00;;;;;;;21.81;45.54;99914.31;4361748;32;34181;-91
2022/06/06 02:56:05;;;;;;;5.40;2.97;;;;;;;21.92;45.01;99905.69;4361712;32;33373;-92
2022/06/06 02:58:35;;;;;;;4.82;2.95;;;;;;;22.02;44.77;99908.50;4349364;32;34508;-91
2022/06/06 03:01:09;;;;;;;4.70;2.95;;;;;;;21.98;45.33;99907.38;4361405;32;34523;-91
2022/06/06 03:03:40;;;;;;;5.62;3.17;;;;;;;22.12;44.23;99907.66;4349128;32;32455;-92
2022/06/06 03:06:27;;;;;;;7.30;3.10;;;;;;;22.22;43.97;99916.03;4361582;32;33839;-91
2022/06/06 03:09:16;;;;;;;4.65;3.08;;;;;;;22.21;43.94;99919.94;4361387;32;33797;-91
2022/06/06 03:11:50;;;;;;;6.57;3.15;;;;;;;22.08;44.78;99908.53;4349027;32;32898;-92
2022/06/06 03:14:43;;;;;;;6.72;3.22;;;;;;;21.99;45.15;99903.44;4348892;32;32470;-91
2022/06/06 03:20:51;;;;;;;;;;;;;;;22.12;44.94;99901.22;4361999;32;33485;-92
2022/06/06 03:23:20;;;;;;;5.25;3.37;;;;;;;22.18;45.02;99897.31;4348989;32;34515;-90
2022/06/06 03:26:13;;;;;;;6.35;2.90;;;;;;;22.09;45.21;99896.22;4361013;32;33969;-91
2022/06/06 03:28:44;;;;;;;4.35;2.92;;;;;;;22.12;45.21;99892.84;4361003;32;32162;-90
2022/06/06 03:31:33;;;;;;;5.20;3.45;;;;;;;22.02;45.71;99882.53;4348845;32;32158;-90
2022/06/06 03:34:28;;;;;;;5.75;2.95;;;;;;;21.90;46.30;99877.19;4360837;32;34415;-91
2022/06/06 03:37:03;;;;;;;5.15;3.53;;;;;;;22.06;46.17;99880.84;4348782;32;33875;-91
2022/06/06 03:39:44;;;;;;;4.53;2.75;;;;;;;22.09;46.11;99873.84;4348593;32;32734;-91
2022/06/06 03:42:26;;;;;;;4.32;2.80;;;;;;;21.98;46.65;99865.44;4360889;32;34512;-91
2022/06/06 03:45:09;;;;;;;5.43;2.92;;;;;;;21.86;47.18;99853.69;4349140;32;35362;-91
2022/06/06 03:48:08;;;;;;;5.30;2.80;;;;;;;22.10;46.86;99847.59;4352197;32;32587;-92
2022/06/06 03:50:36;;;;;;;4.80;2.90;;;;;;;22.17;46.95;99843.34;4353262;32;32036;-91
2022/06/06 03:53:06;;;;;;;5.05;3.00;;;;;;;22.12;47.24;99845.31;4353213;32;33889;-91
2022/06/06 03:55:43;;;;;;;6.10;3.42;;;;;;;21.89;48.15;99836.38;4365577;32;34826;-92
2022/06/06 03:58:15;;;;;;;5.43;3.20;;;;;;;21.97;47.71;99827.44;4365660;32;33883;-89
2022/06/06 04:00:45;;;;;;;5.82;3.35;;;;;;;22.05;47.49;99828.84;4365791;32;33355;-91
2022/06/06 04:03:14;;;;;;;6.00;3.37;;;;;;;22.18;47.40;99833.00;4353213;32;32196;-91
2022/06/06 04:05:42;;;;;;;6.85;3.20;;;;;;;22.08;47.90;99831.09;4365239;32;32958;-90
2022/06/06 04:08:10;;;;;;;5.15;3.00;;;;;;;22.07;47.99;99829.41;4365431;32;32831;-92
2022/06/06 04:10:44;;;;;;;4.57;3.03;;;;;;;22.21;46.65;99838.03;4353746;32;33246;-92
2022/06/06 04:13:29;;;;;;;5.00;3.30;;;;;;;22.39;45.40;99851.44;4353109;32;32095;-91
2022/06/06 04:16:04;;;;;;;5.65;3.15;;;;;;;22.27;45.57;99853.69;4353381;32;34282;-91
2022/06/06 04:18:44;;;;;;;5.53;3.10;;;;;;;22.30;44.95;99861.50;4353255;32;32220;-92
2022/06/06 04:21:21;;;;;;;4.68;3.28;;;;;;;22.24;44.65;99863.47;4365507;32;33203;-92
2022/06/06 04:24:10;;;;;;;6.05;3.53;;;;;;;22.13;44.79;99861.81;4365468;32;33335;-92
2022/06/06 04:26:42;;;;;;;4.85;3.00;;;;;;;22.07;45.04;99867.72;4353121;32;32781;-91
2022/06/06 04:29:16;;;;;;;4.57;3.20;;;;;;;21.98;45.09;99867.41;4353152;32;33225;-92
2022/06/06 04:32:07;;;;;;;6.12;3.30;;;;;;;22.08;44.92;99872.19;4353011;32;31582;-92
2022/06/06 04:34:47;;;;;;;5.47;3.30;;;;;;;21.88;46.45;99872.97;4365237;32;34447;-91
2022/06/06 04:37:25;;;;;;;5.45;3.40;;;;;;;21.78;47.17;99884.16;4365179;32;34097;-92
2022/06/06 04:40:08;;;;;;;5.30;3.37;;;;;;;21.95;46.04;99879.97;4365141;32;33212;-92
2022/06/06 04:43:03;;;;;;;5.68;3.62;;;;;;;21.94;46.52;99883.03;4365272;32;33917;-89
2022/06/06 04:45:40;;;;;;;5.45;3.75;;;;;;;21.97;46.77;99879.69;4353109;32;34012;-94
2022/06/06 04:48:08;;;;;;;6.20;3.47;;;;;;;21.93;46.96;99879.41;4365441;32;35445;-95
2022/06/06 04:50:41;;;;;;;6.07;3.42;;;;;;;21.79;48.57;99886.66;4365037;32;32618;-94
2022/06/06 04:53:14;;;;;;;6.37;3.80;;;;;;;21.84;49.34;99886.66;4364603;32;33672;-93
2022/06/06 04:55:42;;;;;;;6.35;3.87;;;;;;;21.94;49.13;99888.63;4352787;32;32440;-94
2022/06/06 04:58:14;;;;;;;11.25;6.70;;;;;;;22.08;48.06;99894.53;4364568;32;35063;-94
2022/06/06 05:00:42;;;;;;;12.00;8.48;;;;;;;22.22;46.65;99892.84;4365369;32;33690;-94
2022/06/06 05:03:10;;;;;;;7.47;4.03;;;;;;;22.26;45.74;99886.41;4365234;32;33522;-93
2022/06/06 05:06:09;;;;;;;7.50;4.90;;;;;;;22.28;45.33;99900.94;4353264;32;34463;-94
2022/06/06 05:09:12;;;;;;;7.45;4.60;;;;;;;22.26;45.34;99896.75;4378671;32;35447;-93
2022/06/06 05:11:51;;;;;;;5.45;4.10;;;;;;;22.21;46.04;99896.75;4353005;32;33982;-94
2022/06/06 05:14:25;;;;;;;13.55;9.13;;;;;;;22.17;46.93;99899.25;4378385;32;33112;-92
2022/06/06 05:17:06;;;;;;;7.37;5.15;;;;;;;22.25;47.39;99901.50;4378748;32;33648;-93
2022/06/06 05:19:49;;;;;;;6.12;4.32;;;;;;;22.35;48.01;99906.25;4352605;32;33823;-93
2022/06/06 05:22:55;;;;;;;13.43;9.15;;;;;;;22.37;48.42;99909.59;4352830;32;34804;-89
2022/06/06 05:25:45;;;;;;;8.10;4.82;;;;;;;22.54;48.95;99912.09;4352654;32;32839;-89
2022/06/06 05:28:16;;;;;;;6.62;3.95;;;;;;;22.56;49.65;99916.28;4352531;32;32227;-93
2022/06/06 05:31:08;;;;;;;6.65;4.70;;;;;;;22.67;49.96;99919.91;4352541;32;33681;-93
2022/06/06 05:34:02;;;;;;;15.27;10.05;;;;;;;22.60;51.50;99916.56;4364530;32;32431;-93
2022/06/06 05:36:41;;;;;;;9.02;4.70;;;;;;;22.80;50.90;99915.69;4325649;32;33083;-92
2022/06/06 05:39:19;;;;;;;8.77;5.75;;;;;;;22.76;52.47;99911.75;4364978;32;33900;-93
2022/06/06 05:42:05;;;;;;;9.77;5.87;;;;;;;22.99;51.48;99913.94;4364579;32;32611;-93
2022/06/06 05:44:39;;;;;;;6.65;4.95;;;;;;;22.90;51.31;99919.28;4352700;32;33209;-93
2022/06/06 05:47:28;;;;;;;9.50;4.85;;;;;;;23.04;51.25;99913.09;4352548;32;31915;-94
2022/06/06 05:50:13;;;;;;;7.70;4.65;;;;;;;23.22;50.90;99915.28;4362025;32;33548;-93
2022/06/06 05:53:03;;;;;;;6.90;4.82;;;;;;;23.10;50.87;99918.41;4337647;32;32837;-93
2022/06/06 05:55:56;;;;;;;6.28;3.95;;;;;;;23.09;50.82;99922.31;4349944;32;32363;-92
2022/06/06 05:58:48;;;;;;;6.75;4.60;;;;;;;23.28;50.36;99917.75;4349720;32;31896;-94
2022/06/06 06:01:20;;;;;;;6.43;4.35;;;;;;;23.22;50.77;99921.72;4362089;32;34630;-89
2022/06/06 06:04:05;;;;;;;7.03;4.37;;;;;;;23.26;51.19;99917.22;4350092;32;34104;-93
2022/06/06 06:07:04;;;;;;;6.68;4.25;;;;;;;23.39;50.86;99923.31;4349921;32;32819;-93
2022/06/06 06:09:44;;;;;;;7.37;4.75;;;;;;;23.57;50.70;99923.50;4348566;32;31901;-93
2022/06/06 06:12:21;;;;;;;6.82;4.60;;;;;;;23.44;51.55;99923.25;4349794;32;33823;-93
2022/06/06 06:14:59;;;;;;;7.43;5.60;;;;;;;23.37;51.47;99923.59;4349749;32;33784;-93
2022/06/06 06:17:28;;;;;;;9.68;6.35;;;;;;;23.46;51.26;99918.22;4361962;32;34352;-92
2022/06/06 06:20:13;;;;;;;6.60;4.25;;;;;;;23.47;51.84;99919.88;4362088;32;33355;-92
2022/06/06 06:22:47;;;;;;;6.62;4.57;;;;;;;23.60;51.72;99920.13;4349650;32;33886;-94
2022/06/06 06:25:20;;;;;;;7.60;5.50;;;;;;;23.81;51.33;99929.25;4362210;32;34875;-93
2022/06/06 06:27:48;;;;;;;5.47;3.75;;;;;;;23.94;50.14;99931.41;4363609;32;34767;-93
2022/06/06 06:30:18;;;;;;;7.25;4.20;;;;;;;24.08;46.97;99931.53;4348552;32;34266;-93
2022/06/06 06:32:52;;;;;;;6.95;4.47;;;;;;;24.11;46.24;99939.37;4349337;32;31828;-92
2022/06/06 06:35:59;;;;;;;6.37;4.10;;;;;;;23.72;46.08;99946.97;4349648;32;32822;-93
2022/06/06 06:38:37;;;;;;;9.18;3.95;;;;;;;23.98;46.15;99935.28;4316244;33;33813;-93
2022/06/06 06:41:23;;;;;;;5.68;4.07;;;;;;;24.02;46.67;99929.09;4304763;33;33958;-91
2022/06/06 06:44:07;;;;;;;7.28;4.05;;;;;;;23.75;48.32;99941.63;4330818;32;33096;-90
2022/06/06 06:46:53;;;;;;;6.25;4.37;;;;;;;23.46;48.46;99944.25;4361603;32;35148;-92
2022/06/06 06:49:41;;;;;;;8.65;4.40;;;;;;;23.79;48.42;99934.31;4361489;32;32471;-90
2022/06/06 06:52:34;;;;;;;6.50;4.22;;;;;;;23.95;48.57;99937.84;4361578;32;33152;-91
2022/06/06 06:55:40;;;;;;;6.72;4.20;;;;;;;24.20;47.65;99923.59;4349293;32;32312;-91
2022/06/06 06:58:26;;;;;;;7.00;4.65;;;;;;;24.26;47.48;99921.62;4316275;33;34374;-91
2022/06/06 07:00:59;;;;;;;6.90;4.37;;;;;;;24.16;49.03;99925.31;4292213;33;33155;-93
2022/06/06 07:10:05;;;;;;;6.22;4.35;;;;;;;24.13;45.86;99937.12;4350926;32;32934;-92
2022/06/06 07:13:02;;;;;;;20.30;13.07;;;;;;;24.50;45.24;99930.94;4360979;32;34814;-90
2022/06/06 07:15:42;;;;;;;7.97;5.32;;;;;;;24.61;48.11;99938.13;4345445;32;32743;-91
2022/06/06 07:18:15;;;;;;;5.90;3.90;;;;;;;24.59;46.52;99933.94;4348011;32;33737;-92
2022/06/06 07:20:45;;;;;;;6.40;3.62;;;;;;;24.49;45.73;99940.50;4349028;32;34940;-91
2022/06/06 07:23:14;;;;;;;5.97;4.20;;;;;;;24.37;44.83;99936.41;4350286;32;34132;-92
2022/06/06 07:25:50;;;;;;;5.57;3.87;;;;;;;24.73;44.50;99932.09;4362984;32;33514;-92
2022/06/06 07:28:22;;;;;;;5.95;3.72;;;;;;;24.70;42.14;99940.31;4363217;32;34762;-92
2022/06/06 07:31:05;;;;;;;6.55;4.05;;;;;;;24.73;41.88;99932.09;4363092;32;33840;-91
2022/06/06 07:34:10;;;;;;;8.32;4.35;;;;;;;25.05;43.45;99936.28;4350933;32;32401;-90
2022/06/06 07:36:56;;;;;;;6.47;3.72;;;;;;;24.95;45.40;99946.47;4350728;32;31911;-89
2022/06/06 07:39:30;;;;;;;5.72;3.47;;;;;;;25.32;42.69;99941.31;4350899;32;32158;-91
2022/06/06 07:42:36;;;;;;;6.57;4.28;;;;;;;25.25;41.52;99945.31;4363169;32;35126;-92
2022/06/06 07:45:04;;;;;;;8.43;3.50;;;;;;;25.40;41.86;99941.44;4350802;32;33451;-92
2022/06/06 07:48:03;;;;;;;6.62;3.97;;;;;;;25.38;40.33;99951.31;4350946;32;32647;-91
2022/06/06 07:50:57;;;;;;;6.75;3.92;;;;;;;25.26;41.75;99943.34;4365976;32;33634;-91
2022/06/06 07:53:59;;;;;;;5.10;3.30;;;;;;;25.38;40.61;99948.50;4365998;32;34326;-92
2022/06/06 07:56:39;;;;;;;6.50;3.42;;;;;;;25.03;40.83;99942.19;4347717;32;33468;-93
2022/06/06 07:59:11;;;;;;;5.10;3.33;;;;;;;25.39;40.33;99941.75;4353303;32;31731;-91
2022/06/06 08:01:41;;;;;;;5.10;2.92;;;;;;;25.43;39.22;99945.63;4353235;32;32217;-91
2022/06/06 08:04:14;;;;;;;5.22;3.20;;;;;;;25.64;37.87;99949.88;4365962;32;34254;-91
2022/06/06 08:07:20;;;;;;;5.15;3.10;;;;;;;25.34;34.14;99945.47;4365554;32;33540;-91
2022/06/06 08:09:56;;;;;;;5.40;2.87;;;;;;;25.69;34.49;99952.63;4365696;32;34139;-91
2022/06/06 08:12:34;;;;;;;6.00;3.08;;;;;;;25.91;36.79;99947.22;4365686;32;33676;-91
2022/06/06 08:15:42;;;;;;;4.28;2.80;;;;;;;25.65;34.63;99950.72;4365896;32;34876;-91
2022/06/06 08:18:36;;;;;;;5.00;3.50;;;;;;;25.81;33.97;99952.16;4353079;32;32676;-91
2022/06/06 08:21:07;;;;;;;5.50;3.08;;;;;;;26.04;36.10;99956.03;4341220;32;32885;-92
2022/06/06 08:23:37;;;;;;;4.97;3.58;;;;;;;25.82;36.19;99946.25;4365424;32;34133;-91
2022/06/06 08:26:11;;;;;;;6.18;3.35;;;;;;;26.06;36.98;99948.94;4365575;32;34151;-92
2022/06/06 08:28:43;;;;;;;6.20;3.70;;;;;;;26.25;37.37;99949.75;4365776;32;33824;-91
2022/06/06 08:31:14;;;;;;;8.18;4.15;;;;;;;25.64;38.11;99960.25;4352738;32;31970;-91
2022/06/06 08:33:42;;;;;;;5.32;3.72;;;;;;;25.96;38.30;99957.56;4365144;32;33616;-90
2022/06/06 08:36:17;;;;;;;5.68;4.03;;;;;;;26.37;38.05;99954.13;4353041;32;33908;-92
2022/06/06 08:39:10;;;;;;;5.65;3.60;;;;;;;26.23;37.49;99957.69;4352990;32;32398;-92
2022/06/06 08:42:00;;;;;;;6.45;3.87;;;;;;;26.09;37.74;99956.78;4353550;32;33879;-91
2022/06/06 08:44:49;;;;;;;8.43;4.62;;;;;;;26.60;37.13;99946.69;4352832;32;33738;-91
2022/06/06 08:47:37;;;;;;;6.80;4.18;;;;;;;26.82;38.10;99958.91;4365293;32;35102;-92
2022/06/06 08:50:47;;;;;;;7.30;4.07;;;;;;;26.47;36.49;99949.16;4349867;32;33404;-92
2022/06/06 08:53:41;;;;;;;6.25;4.00;;;;;;;26.83;36.55;99948.50;4351565;32;33309;-90
2022/06/06 08:56:35;;;;;;;10.73;6.47;;;;;;;26.80;37.71;99949.09;4362647;32;34072;-91
2022/06/06 08:59:30;;;;;;;8.20;5.65;;;;;;;26.82;37.74;99950.47;4350319;32;32956;-89
2022/06/06 09:02:28;;;;;;;9.57;4.68;;;;;;;26.62;37.90;99941.59;4350419;32;33269;-92
2022/06/06 09:05:24;;;;;;;10.57;5.30;;;;;;;26.80;38.26;99949.09;4350511;32;31472;-92
2022/06/06 09:07:55;;;;;;;8.80;5.22;;;;;;;26.84;38.67;99947.34;4350411;32;33118;-92
2022/06/06 09:11:01;;;;;;;9.07;5.07;;;;;;;26.75;39.87;99949.19;4350445;32;33062;-91
2022/06/06 09:13:51;;;;;;;10.52;6.90;;;;;;;26.92;39.51;99953.09;4362578;32;33602;-92
2022/06/06 09:16:41;;;;;;;7.22;4.70;;;;;;;26.80;39.46;99947.13;4362117;32;33352;-93
2022/06/06 09:19:53;;;;;;;8.30;5.20;;;;;;;26.70;40.83;99947.31;4362959;32;33865;-92
2022/06/06 09:22:32;;;;;;;8.68;4.87;;;;;;;26.88;39.79;99945.56;4331867;33;32677;-91
2022/06/06 09:25:27;;;;;;;7.10;4.82;;;;;;;27.27;38.84;99933.84;4319673;33;32440;-92
2022/06/06 09:28:29;;;;;;;7.70;4.55;;;;;;;27.40;37.39;99924.53;4340625;32;32922;-91
2022/06/06 09:31:24;;;;;;;5.20;4.25;;;;;;;27.32;37.95;99924.41;4350140;32;32088;-93
2022/06/06 09:34:21;;;;;;;6.93;4.70;;;;;;;27.38;35.21;99921.19;4362428;32;34682;-91
2022/06/06 09:37:13;;;;;;;6.85;4.40;;;;;;;27.48;36.87;99926.59;4362675;32;34051;-92
2022/06/06 09:40:09;;;;;;;9.07;4.15;;;;;;;27.84;36.04;99918.22;4362414;32;34097;-92
2022/06/06 09:43:09;;;;;;;6.78;4.28;;;;;;;27.93;35.50;99917.44;4350113;32;32316;-93
2022/06/06 09:46:14;;;;;;;6.07;4.47;;;;;;;28.31;34.72;99910.28;4349942;32;34694;-92
2022/06/06 09:49:13;;;;;;;9.68;5.20;;;;;;;28.51;34.86;99912.59;4361974;32;34028;-92
2022/06/06 09:52:00;;;;;;;6.87;3.95;;;;;;;28.39;35.55;99906.69;4362155;32;33302;-93
2022/06/06 10:00:20;;;;;;;11.13;4.23;;;;;;;28.47;34.19;99890.97;4351682;32;32389;-91
2022/06/06 10:03:17;;;;;;;7.18;3.80;;;;;;;28.64;30.99;99895.84;4339606;32;31487;-93
2022/06/06 10:06:04;;;;;;;7.15;4.18;;;;;;;28.69;31.08;99901.37;4330517;32;33779;-92
2022/06/06 10:08:50;;;;;;;6.90;3.95;;;;;;;29.17;32.66;99893.81;4362187;32;34105;-91
2022/06/06 10:11:26;;;;;;;6.97;3.85;;;;;;;29.35;32.44;99888.19;4350174;32;34123;-92
2022/06/06 10:14:19;;;;;;;7.07;3.90;;;;;;;29.55;31.85;99893.25;4340195;32;32062;-93
2022/06/06 10:16:50;;;;;;;7.03;4.37;;;;;;;29.85;31.61;99880.13;4354095;32;33322;-92
2022/06/06 10:19:32;;;;;;;4.85;3.60;;;;;;;30.07;29.85;99881.97;4367197;32;34344;-91
2022/06/06 10:22:17;;;;;;;5.82;4.40;;;;;;;30.17;29.64;99883.62;4359480;32;32818;-94
2022/06/06 10:25:10;;;;;;;8.87;4.47;;;;;;;29.99;30.12;99879.94;4354325;32;33151;-92
2022/06/06 10:27:53;;;;;;;4.70;3.40;;;;;;;30.41;29.91;99875.44;4365693;32;33645;-89
2022/06/06 10:30:31;;;;;;;6.60;3.83;;;;;;;29.94;26.37;99874.44;4374740;32;34454;-92
2022/06/06 10:33:48;;;;;;;4.70;2.90;;;;;;;29.89;25.86;99877.47;4364501;32;34733;-92
2022/06/06 10:36:35;;;;;;;5.40;2.78;;;;;;;30.26;25.34;99873.97;4349069;32;33977;-93
2022/06/06 10:39:36;;;;;;;4.85;2.83;;;;;;;30.41;25.67;99869.78;4354141;32;32216;-93
2022/06/06 10:42:23;;;;;;;5.25;2.72;;;;;;;30.42;24.79;99882.75;4369091;32;33087;-93
2022/06/06 10:45:20;;;;;;;5.93;3.08;;;;;;;30.79;24.69;99876.34;4367268;32;34222;-92
2022/06/06 10:47:54;;;;;;;6.05;3.80;;;;;;;30.80;25.31;99865.81;4356047;32;32903;-90
2022/06/06 10:50:29;;;;;;;6.05;3.45;;;;;;;31.03;25.04;99870.06;4361733;32;33650;-92
2022/06/06 10:53:24;;;;;;;4.57;3.12;;;;;;;30.82;25.99;99857.81;4349451;32;35120;-90
2022/06/06 10:56:14;;;;;;;6.18;3.40;;;;;;;30.98;25.07;99856.09;4348912;32;33983;-91
2022/06/06 10:59:00;;;;;;;5.62;3.12;;;;;;;31.30;26.13;99848.91;4361809;32;33207;-92
2022/06/06 11:01:51;;;;;;;5.03;3.00;;;;;;;30.83;24.33;99850.16;4363344;32;33827;-92
2022/06/06 11:04:38;;;;;;;6.93;3.45;;;;;;;31.38;26.36;99844.34;4352524;32;34479;-90
2022/06/06 11:07:21;;;;;;;4.62;3.17;;;;;;;31.77;25.47;99846.75;4369601;32;33898;-91
2022/06/06 11:10:11;;;;;;;6.97;3.50;;;;;;;31.84;23.12;99840.53;4351039;32;32718;-92
2022/06/06 11:12:54;;;;;;;5.68;3.42;;;;;;;32.05;24.22;99841.31;4351077;32;33213;-93
2022/06/06 11:15:28;;;;;;;5.47;3.53;;;;;;;32.32;25.00;99842.75;4363268;32;34450;-93
2022/06/06 11:18:14;;;;;;;4.78;2.97;;;;;;;32.24;23.24;99834.31;4350990;32;33987;-94
2022/06/06 11:21:06;;;;;;;6.30;2.72;;;;;;;32.06;23.23;99840.13;4350772;32;33597;-94
2022/06/06 11:23:51;;;;;;;6.45;3.08;;;;;;;32.33;25.33;99832.22;4351334;32;32251;-94
2022/06/06 11:26:43;;;;;;;4.70;2.80;;;;;;;32.40;23.39;99827.63;4363237;32;34117;-90
2022/06/06 11:29:42;;;;;;;33.22;5.60;;;;;;;32.57;23.13;99839.94;4363203;32;33573;-94
2022/06/06 11:32:26;;;;;;;7.57;3.15;;;;;;;32.74;23.15;99825.53;4350838;32;31967;-91
2022/06/06 11:35:29;;;;;;;9.55;3.30;;;;;;;32.47;22.61;99823.38;4362995;32;34146;-91
2022/06/06 11:38:16;;;;;;;7.45;4.30;;;;;;;32.87;24.08;99817.87;4338453;32;32997;-90
2022/06/06 11:41:09;;;;;;;8.65;3.30;;;;;;;32.99;25.65;99817.87;4351209;32;32458;-87
2022/06/06 11:43:59;;;;;;;7.72;3.62;;;;;;;33.09;24.54;99827.94;4353118;32;32216;-86
2022/06/06 11:46:47;;;;;;;5.40;2.80;;;;;;;33.26;23.23;99819.13;4350688;32;33335;-86
2022/06/06 11:50:04;;;;;;;4.85;2.87;;;;;;;32.98;22.32;99819.06;4350872;32;34468;-86
2022/06/06 11:52:46;;;;;;;8.40;3.47;;;;;;;33.01;22.25;99815.50;4352555;32;32296;-83
2022/06/06 11:55:20;;;;;;;4.62;2.90;;;;;;;33.31;23.67;99819.75;4353259;32;31635;-83
2022/06/06 11:58:31;;;;;;;10.98;3.22;;;;;;;32.79;21.58;99816.78;4339185;32;33177;-83
2022/06/06 12:01:03;;;;;;;4.55;2.95;;;;;;;33.16;22.46;99797.69;4352644;32;32893;-83
2022/06/06 12:03:46;;;;;;;7.45;3.20;;;;;;;33.17;21.50;99804.22;4353119;32;33415;-83
2022/06/06 12:06:15;;;;;;;5.82;2.80;;;;;;;33.21;22.52;99797.44;4353152;32;32833;-83
2022/06/06 12:08:54;;;;;;;9.50;3.80;;;;;;;33.42;21.84;99794.47;4353400;32;33279;-84
2022/06/06 12:11:50;;;;;;;5.18;2.67;;;;;;;33.38;23.38;99793.53;4353563;32;33054;-88
2022/06/06 12:15:01;;;;;;;7.75;2.90;;;;;;;33.09;21.46;99794.66;4356675;32;32764;-84
2022/06/06 12:17:55;;;;;;;3.78;2.70;;;;;;;32.71;21.62;99792.94;4350189;32;32859;-83
2022/06/06 12:20:48;;;;;;;5.15;2.80;;;;;;;33.04;21.51;99795.72;4371407;32;32067;-83
2022/06/06 12:23:28;;;;;;;4.68;2.72;;;;;;;33.06;21.40;99784.81;4367591;32;35282;-83
2022/06/06 12:26:12;;;;;;;4.40;2.53;;;;;;;33.13;21.67;99775.69;4373833;32;33716;-83
2022/06/06 12:28:49;;;;;;;4.10;2.60;;;;;;;33.14;21.28;99782.19;4368536;32;34011;-83
2022/06/06 12:31:50;;;;;;;4.37;3.00;;;;;;;33.13;22.76;99777.69;4372021;32;34820;-83
2022/06/06 12:34:27;;;;;;;4.90;3.00;;;;;;;33.13;24.08;99774.84;4361231;32;35811;-84
2022/06/06 12:37:12;;;;;;;4.60;3.05;;;;;;;33.25;22.92;99772.78;4365574;32;34754;-83
2022/06/06 12:39:52;;;;;;;4.47;2.70;;;;;;;33.03;21.91;99774.16;4353649;32;32211;-84
2022/06/06 12:42:31;;;;;;;4.43;2.80;;;;;;;33.15;21.88;99766.78;4353310;32;33874;-84
2022/06/06 12:45:17;;;;;;;4.78;2.87;;;;;;;33.23;21.60;99766.63;4352928;32;33035;-84
2022/06/06 12:48:33;;;;;;;7.35;3.33;;;;;;;33.17;22.33;99764.37;4353769;32;34702;-84
2022/06/06 12:51:38;;;;;;;5.50;2.62;;;;;;;33.11;22.25;99766.69;4347985;32;31834;-84
2022/06/06 12:54:30;;;;;;;4.80;2.70;;;;;;;32.50;22.63;99768.69;4350385;32;32112;-84
2022/06/06 12:57:10;;;;;;;5.32;3.55;;;;;;;31.88;23.56;99759.16;4362630;32;34533;-84
2022/06/06 12:59:52;;;;;;;4.93;2.92;;;;;;;32.33;23.58;99762.03;4350978;32;33905;-83
2022/06/06 13:02:35;;;;;;;4.12;2.60;;;;;;;31.43;23.59;99764.72;4362508;32;34268;-83